createdAt,value
2022-10-10T00:03:17.560Z,13.0
2022-10-10T00:05:15.967Z,10.5
2022-10-10T00:10:16.544Z,12.8
2022-10-10T00:15:17.081Z,13.1
2022-10-10T00:20:17.691Z,11.1
2022-10-10T00:25:18.325Z,11.1
2022-10-10T00:30:18.881Z,10.6
2022-10-10T00:35:19.489Z,10.8
2022-10-10T00:40:20.074Z,9.3
2022-10-10T00:45:20.727Z,14.2
2022-10-10T00:50:21.376Z,11.3
2022-10-10T00:55:21.958Z,10.8
2022-10-10T01:00:22.654Z,13.7
2022-10-10T01:05:23.196Z,11.9
2022-10-10T01:10:26.567Z,13.6
2022-10-10T01:15:24.496Z,14.3
2022-10-10T01:20:25.109Z,9.0
2022-10-10T01:25:25.754Z,14.0
2022-10-10T01:30:26.355Z,10.3
2022-10-10T01:35:26.999Z,12.3
2022-10-10T01:40:27.735Z,15.2
2022-10-10T01:45:28.221Z,15.8
2022-10-10T01:50:28.897Z,15.1
2022-10-10T01:55:29.689Z,12.1
2022-10-10T02:00:30.157Z,20.3
2022-10-10T02:05:30.852Z,10.6
2022-10-10T02:10:31.587Z,12.9
2022-10-10T02:15:31.964Z,10.9
2022-10-10T02:20:32.677Z,13.2
2022-10-10T02:25:33.422Z,12.7
2022-10-10T02:30:33.837Z,12.2
2022-10-10T02:35:34.715Z,16.0
2022-10-10T02:40:35.128Z,15.1
2022-10-10T02:45:35.758Z,18.9
2022-10-10T02:50:36.390Z,14.6
2022-10-10T02:55:37.016Z,16.3
2022-10-10T03:00:37.627Z,20.1
2022-10-10T03:05:38.118Z,21.5
2022-10-10T03:10:39.196Z,17.3
2022-10-10T03:15:39.386Z,16.7
2022-10-10T03:20:40.004Z,16.4
2022-10-10T03:25:40.747Z,16.1
2022-10-10T03:30:41.298Z,14.3
2022-10-10T03:35:41.828Z,11.1
2022-10-10T03:40:42.594Z,13.8
2022-10-10T03:45:43.049Z,10.2
2022-10-10T03:50:43.702Z,10.5
2022-10-10T03:55:44.363Z,11.1
2022-10-10T04:00:44.824Z,12.6
2022-10-10T04:05:45.462Z,11.6
2022-10-10T04:10:46.249Z,14.7
2022-10-10T04:15:46.627Z,15.7
2022-10-10T04:20:47.243Z,12.8
2022-10-10T04:25:47.833Z,18.4
2022-10-10T04:30:48.548Z,17.8
2022-10-10T04:35:48.956Z,19.9
2022-10-10T04:40:49.703Z,16.8
2022-10-10T04:45:50.106Z,14.6
2022-10-10T04:50:50.716Z,21.3
2022-10-10T04:55:51.287Z,25.8
2022-10-10T05:00:51.756Z,15.8
2022-10-10T05:05:52.444Z,21.2
2022-10-10T05:10:52.952Z,25.9
2022-10-10T05:15:53.505Z,21.6
2022-10-10T05:20:53.997Z,17.9
2022-10-10T05:25:54.704Z,28.1
2022-10-10T05:30:55.126Z,23.4
2022-10-10T05:35:55.699Z,26.8
2022-10-10T05:40:56.397Z,20.5
2022-10-10T05:45:56.894Z,22.7
2022-10-10T05:50:57.396Z,20.4
2022-10-10T05:55:57.956Z,23.8
2022-10-10T06:00:58.507Z,24.9
2022-10-10T06:05:58.934Z,23.8
2022-10-10T06:10:59.917Z,20.4
2022-10-10T06:16:00.094Z,23.1
2022-10-10T06:21:00.737Z,23.5
2022-10-10T06:26:01.295Z,20.0
2022-10-10T06:31:01.745Z,23.9
2022-10-10T06:36:02.557Z,31.9
2022-10-10T06:41:02.968Z,19.8
2022-10-10T06:46:03.556Z,20.2
2022-10-10T06:51:04.085Z,21.4
2022-10-10T06:56:04.763Z,30.4
2022-10-10T07:01:05.122Z,27.6
2022-10-10T07:06:05.684Z,14.4
2022-10-10T07:11:06.577Z,20.6
2022-10-10T07:16:06.809Z,19.1
2022-10-10T07:21:07.493Z,18.0
2022-10-10T07:26:08.022Z,22.6
2022-10-10T07:31:08.673Z,26.1
2022-10-10T07:36:09.077Z,21.9
2022-10-10T07:41:09.720Z,15.7
2022-10-10T07:46:12.186Z,16.4
2022-10-10T07:51:10.818Z,10.7
2022-10-10T07:56:11.457Z,24.4
2022-10-10T08:01:11.877Z,25.0
2022-10-10T08:06:12.397Z,23.5
2022-10-10T08:11:13.178Z,18.3
2022-10-10T08:16:13.590Z,18.5
2022-10-10T08:21:14.099Z,22.1
2022-10-10T08:26:14.906Z,19.5
2022-10-10T08:31:15.328Z,26.3
2022-10-10T08:36:16.103Z,19.6
2022-10-10T08:41:16.928Z,13.2
2022-10-10T08:46:16.828Z,10.8
2022-10-10T08:51:17.618Z,18.1
2022-10-10T08:56:18.043Z,28.4
2022-10-10T09:01:18.603Z,11.0
2022-10-10T09:06:19.076Z,21.1
2022-10-10T09:11:19.979Z,20.6
2022-10-10T09:16:20.300Z,20.0
2022-10-10T09:21:20.818Z,19.8
2022-10-10T09:26:21.527Z,11.3
2022-10-10T09:31:21.903Z,15.5
2022-10-10T09:36:22.559Z,19.7
2022-10-10T09:41:23.154Z,18.1
2022-10-10T09:46:23.701Z,17.5
2022-10-10T09:51:24.329Z,13.9
2022-10-10T09:56:24.885Z,15.4
2022-10-10T10:01:25.539Z,15.4
2022-10-10T10:06:25.951Z,15.8
2022-10-10T10:11:26.657Z,19.3
2022-10-10T10:16:27.080Z,11.5
2022-10-10T10:21:27.767Z,16.6
2022-10-10T10:26:28.294Z,22.0
2022-10-10T10:31:28.837Z,19.7
2022-10-10T10:36:29.467Z,16.8
2022-10-10T10:41:30.057Z,25.3
2022-10-10T10:46:30.640Z,23.4
2022-10-10T10:51:31.085Z,25.1
2022-10-10T11:01:54.719Z,22.8
2022-10-10T11:06:32.941Z,18.5
2022-10-10T11:11:33.455Z,12.8
2022-10-10T11:16:48.106Z,12.3
2022-10-10T11:21:34.550Z,14.8
2022-10-10T11:26:35.109Z,16.0
2022-10-10T11:31:35.797Z,20.3
2022-10-10T11:36:36.156Z,15.9
2022-10-10T11:41:36.801Z,13.6
2022-10-10T11:46:37.412Z,20.3
2022-10-10T11:51:37.883Z,14.8
2022-10-10T11:56:38.596Z,20.0
2022-10-10T12:01:38.968Z,14.2
2022-10-10T12:06:39.573Z,13.5
2022-10-10T12:11:40.510Z,14.9
2022-10-10T12:16:40.719Z,10.2
2022-10-10T12:21:41.200Z,11.8
2022-10-10T12:26:41.925Z,11.3
2022-10-10T12:31:42.398Z,18.5
2022-10-10T12:36:42.875Z,17.0
2022-10-10T12:41:47.302Z,17.6
2022-10-10T12:46:43.956Z,13.3
2022-10-10T12:51:44.621Z,10.6
2022-10-10T12:56:45.200Z,8.3
2022-10-10T13:01:45.817Z,9.4
2022-10-10T13:06:46.183Z,10.4
2022-10-10T13:11:46.839Z,11.8
2022-10-10T13:16:47.346Z,13.3
2022-10-10T13:21:47.858Z,10.5
2022-10-10T13:26:48.526Z,21.6
2022-10-10T13:31:49.077Z,16.7
2022-10-10T13:36:49.659Z,17.3
2022-10-10T13:41:50.181Z,14.7
2022-10-10T13:46:50.767Z,20.7
2022-10-10T13:51:51.398Z,9.9
2022-10-10T13:56:51.920Z,11.9
2022-10-10T14:01:52.616Z,15.9
2022-10-10T14:06:53.036Z,16.6
2022-10-10T14:11:53.817Z,12.5
2022-10-10T14:16:54.200Z,19.5
2022-10-10T14:21:54.771Z,14.3
2022-10-10T14:26:55.483Z,14.8
2022-10-10T14:31:55.982Z,12.5
2022-10-10T14:36:56.418Z,6.9
2022-10-10T14:41:57.046Z,10.5
2022-10-10T14:46:57.562Z,11.1
2022-10-10T14:51:58.107Z,16.1
2022-10-10T14:57:07.838Z,16.8
2022-10-10T15:01:59.181Z,18.7
2022-10-10T15:07:12.375Z,16.7
2022-10-10T15:12:00.708Z,16.1
2022-10-10T15:17:00.961Z,14.6
2022-10-10T15:22:01.587Z,9.5
2022-10-10T15:27:02.214Z,8.0
2022-10-10T15:32:02.719Z,9.3
2022-10-10T15:37:03.359Z,12.6
2022-10-10T15:42:10.961Z,13.3
2022-10-10T15:47:04.428Z,19.5
2022-10-10T15:52:04.877Z,11.5
2022-10-10T15:57:05.638Z,11.9
2022-10-10T16:02:05.973Z,10.9
2022-10-10T16:07:24.547Z,10.6
2022-10-10T16:12:07.393Z,12.6
2022-10-10T16:17:07.662Z,15.4
2022-10-10T16:22:08.336Z,10.4
2022-10-10T16:27:08.864Z,6.6
2022-10-10T16:32:09.422Z,9.4
2022-10-10T16:37:10.016Z,12.6
2022-10-10T16:42:10.538Z,8.9
2022-10-10T16:47:10.939Z,11.0
2022-10-10T16:52:11.640Z,13.6
2022-10-10T16:57:12.198Z,9.6
2022-10-10T17:02:12.677Z,10.9
2022-10-10T17:07:13.065Z,7.0
2022-10-10T17:12:13.834Z,7.2
2022-10-10T17:17:14.290Z,10.6
2022-10-10T17:22:14.739Z,11.2
2022-10-10T17:27:15.471Z,8.9
2022-10-10T17:32:15.858Z,19.9
2022-10-10T17:37:16.655Z,19.5
2022-10-10T17:42:17.178Z,8.0
2022-10-10T17:47:17.535Z,9.1
2022-10-10T17:52:21.112Z,9.0
2022-10-10T17:57:18.666Z,13.9
2022-10-10T18:02:19.081Z,15.4
2022-10-10T18:07:19.713Z,10.8
2022-10-10T18:12:20.464Z,12.1
2022-10-10T18:17:20.703Z,11.9
2022-10-10T18:22:21.389Z,14.8
2022-10-10T18:27:21.897Z,16.4
2022-10-10T18:32:22.480Z,8.1
2022-10-10T18:37:22.950Z,13.3
2022-10-10T18:42:23.756Z,9.7
2022-10-10T18:47:24.172Z,9.1
2022-10-10T18:52:24.927Z,12.9
2022-10-10T18:57:25.457Z,12.4
2022-10-10T19:02:25.839Z,11.7
2022-10-10T19:07:26.478Z,10.5
2022-10-10T19:12:27.118Z,8.1
2022-10-10T19:17:27.644Z,10.0
2022-10-10T19:22:31.199Z,7.8
2022-10-10T19:27:28.657Z,7.7
2022-10-10T19:32:31.497Z,8.0
2022-10-10T19:37:29.775Z,6.3
2022-10-10T19:42:31.502Z,8.1
2022-10-10T19:47:31.008Z,10.4
2022-10-10T19:52:31.564Z,11.2
2022-10-10T19:57:32.079Z,12.1
2022-10-10T20:02:32.649Z,8.3
2022-10-10T20:07:33.211Z,13.4
2022-10-10T20:12:34.039Z,12.0
2022-10-10T20:17:34.507Z,10.6
2022-10-10T20:22:35.011Z,17.0
2022-10-10T20:27:35.674Z,13.5
2022-10-10T20:32:36.172Z,7.7
2022-10-10T20:37:36.771Z,15.7
2022-10-10T20:42:37.527Z,12.2
2022-10-10T20:47:38.969Z,13.2
2022-10-10T20:52:38.528Z,19.5
2022-10-10T20:57:39.093Z,15.7
2022-10-10T21:02:39.767Z,12.7
2022-10-10T21:07:40.100Z,10.5
2022-10-10T21:12:41.128Z,10.0
2022-10-10T21:17:41.331Z,13.8
2022-10-10T21:22:41.841Z,9.0
2022-10-10T21:27:42.556Z,8.8
2022-10-10T21:32:42.986Z,11.5
2022-10-10T21:37:43.628Z,12.8
2022-10-10T21:42:44.267Z,13.3
2022-10-10T21:47:44.765Z,10.8
2022-10-10T21:52:45.385Z,9.4
2022-10-10T21:57:45.977Z,8.3
2022-10-10T22:02:46.581Z,10.0
2022-10-10T22:07:47.056Z,11.6
2022-10-10T22:12:47.868Z,7.2
2022-10-10T22:17:48.319Z,5.5
2022-10-10T22:22:48.876Z,15.6
2022-10-10T22:27:49.627Z,9.4
2022-10-10T22:32:50.091Z,4.3
2022-10-10T22:37:50.795Z,8.2
2022-10-10T22:42:52.406Z,8.5
2022-10-10T22:47:51.760Z,9.1
2022-10-10T22:52:52.405Z,10.1
2022-10-10T22:57:53.058Z,8.8
2022-10-10T23:02:53.592Z,9.2
2022-10-10T23:07:54.118Z,13.9
2022-10-10T23:12:54.980Z,10.9
2022-10-10T23:17:55.337Z,9.1
2022-10-10T23:22:55.841Z,10.6
2022-10-10T23:27:56.653Z,8.8
2022-10-10T23:32:57.048Z,7.8
2022-10-10T23:37:57.624Z,8.4
2022-10-10T23:42:58.238Z,10.0
2022-10-10T23:47:58.807Z,13.0
2022-10-10T23:52:59.377Z,7.6
2022-10-10T23:57:59.904Z,12.7
